Time;durP1;ratioP1;P1;durP2;ratioP2;P2;SDS_P1;SDS_P2;PMS_P1;PMS_P2;Temp;Humidity;BMP_temperature;BMP_pressure;BME280_temperature;BME280_humidity;BME280_pressure;Samples;Min_cycle;Max_cycle;Signal;HPM_P1;HPM_P2
2022/06/17 00:00:54;;;;;;;4.13;2.63;;;18.80;1.00;;;;;;5041379;28;20755;-74
2022/06/17 00:03:21;;;;;;;3.77;2.43;;;18.70;1.00;;;;;;5050585;28;20491;-75
2022/06/17 00:05:47;;;;;;;7.20;3.40;;;18.70;1.00;;;;;;5035747;28;20445;-74
2022/06/17 00:08:22;;;;;;;5.43;2.40;;;18.60;1.00;;;;;;5028799;28;20475;-74
2022/06/17 00:10:47;;;;;;;5.63;2.37;;;18.50;1.00;;;;;;5030730;28;20651;-74
2022/06/17 00:13:17;;;;;;;3.50;2.57;;;18.40;1.00;;;;;;5030138;28;20474;-74
2022/06/17 00:15:45;;;;;;;3.40;2.47;;;18.40;1.00;;;;;;5031225;28;20174;-75
2022/06/17 00:18:11;;;;;;;9.67;2.63;;;18.40;1.00;;;;;;5030352;28;20451;-75
2022/06/17 00:20:37;;;;;;;3.90;2.57;;;18.40;1.00;;;;;;5028418;28;20417;-74
2022/06/17 00:23:03;;;;;;;3.00;2.10;;;18.40;1.00;;;;;;5029805;28;20915;-74
2022/06/17 00:25:34;;;;;;;4.47;2.90;;;18.50;1.00;;;;;;5030620;28;20181;-75
2022/06/17 00:28:00;;;;;;;3.87;2.80;;;18.60;1.00;;;;;;5030697;28;20189;-75
2022/06/17 00:30:29;;;;;;;4.37;2.40;;;18.70;1.00;;;;;;5034727;28;20982;-75
2022/06/17 00:32:58;;;;;;;4.07;2.37;;;18.60;1.00;;;;;;5048795;28;20168;-73
2022/06/17 00:35:27;;;;;;;2.90;2.27;;;18.60;1.00;;;;;;5049687;28;20480;-75
2022/06/17 00:37:53;;;;;;;4.80;2.40;;;18.60;1.00;;;;;;5031068;28;20436;-74
2022/06/17 00:40:21;;;;;;;3.83;2.60;;;18.60;1.00;;;;;;5030423;28;20787;-74
2022/06/17 00:42:48;;;;;;;5.60;2.70;;;18.50;1.00;;;;;;5028207;28;20170;-75
2022/06/17 00:45:43;;;;;;;5.37;2.77;;;18.30;1.00;;;;;;5028796;28;20424;-75
2022/06/17 00:48:24;;;;;;;4.40;2.60;;;18.20;1.00;;;;;;5029570;28;20464;-75
2022/06/17 00:51:02;;;;;;;3.13;2.33;;;18.00;1.00;;;;;;5008846;28;20548;-74
2022/06/17 00:53:31;;;;;;;5.90;2.60;;;18.00;1.00;;;;;;5029114;28;20903;-73
2022/06/17 00:56:19;;;;;;;3.03;2.53;;;17.90;1.00;;;;;;5038171;28;20953;-73
2022/06/17 00:59:05;;;;;;;5.93;2.63;;;17.90;1.00;;;;;;5037889;28;20483;-74
2022/06/17 01:01:40;;;;;;;2.77;2.47;;;17.90;1.00;;;;;;5040803;28;20410;-75
2022/06/17 01:04:09;;;;;;;3.23;2.30;;;17.80;1.00;;;;;;5048969;28;20733;-75
2022/06/17 01:06:40;;;;;;;3.83;2.43;;;17.70;1.00;;;;;;5047985;28;20840;-75
2022/06/17 01:11:57;;;;;;;4.13;2.50;;;17.70;1.00;;;;;;5049220;28;20407;-75
2022/06/17 01:14:23;;;;;;;3.03;2.40;;;17.80;1.00;;;;;;5038829;28;20415;-74
2022/06/17 01:16:50;;;;;;;3.60;2.40;;;17.70;1.00;;;;;;5029487;28;20408;-74
2022/06/17 01:19:40;;;;;;;3.63;2.63;;;17.70;1.00;;;;;;5028798;28;20910;-74
2022/06/17 01:22:23;;;;;;;4.20;2.70;;;17.60;1.00;;;;;;5027777;28;20401;-75
2022/06/17 01:24:52;;;;;;;3.67;2.30;;;17.60;1.00;;;;;;5025757;28;20556;-75
2022/06/17 01:27:21;;;;;;;3.50;2.40;;;17.50;1.00;;;;;;5028912;28;20539;-75
2022/06/17 01:29:47;;;;;;;3.50;2.73;;;17.50;1.00;;;;;;5033384;28;20470;-74
2022/06/17 01:32:16;;;;;;;3.60;2.60;;;17.50;1.00;;;;;;5042010;28;20862;-75
2022/06/17 01:34:42;;;;;;;2.90;2.30;;;17.40;1.00;;;;;;5048061;28;20404;-74
2022/06/17 01:37:09;;;;;;;3.30;2.40;;;17.40;1.00;;;;;;5046725;28;20440;-75
2022/06/17 01:39:35;;;;;;;5.23;2.70;;;17.50;1.00;;;;;;5047703;28;20480;-74
2022/06/17 01:42:01;;;;;;;3.90;2.60;;;17.60;1.00;;;;;;5010679;28;20440;-74
2022/06/17 01:44:33;;;;;;;4.57;2.50;;;17.60;1.00;;;;;;5009443;28;20185;-74
2022/06/17 01:47:01;;;;;;;3.27;2.50;;;17.50;1.00;;;;;;5007593;28;20289;-74
2022/06/17 01:49:38;;;;;;;6.30;2.33;;;17.50;1.00;;;;;;5008517;28;20461;-74
2022/06/17 01:52:39;;;;;;;4.43;2.53;;;17.50;1.00;;;;;;5007959;28;20433;-74
2022/06/17 01:55:22;;;;;;;2.60;2.30;;;17.50;1.00;;;;;;5008807;28;20528;-74
2022/06/17 01:57:56;;;;;;;3.63;2.40;;;17.40;1.00;;;;;;5009240;28;20417;-75
2022/06/17 02:00:26;;;;;;;3.70;2.47;;;17.30;1.00;;;;;;5036070;28;20420;-75
2022/06/17 02:03:06;;;;;;;3.90;2.30;;;17.40;1.00;;;;;;5046346;28;20416;-74
2022/06/17 02:05:34;;;;;;;5.50;2.20;;;17.40;1.00;;;;;;5036369;28;20492;-74
2022/06/17 02:08:02;;;;;;;3.53;2.40;;;17.40;1.00;;;;;;5026813;28;20827;-74
2022/06/17 02:10:39;;;;;;;2.50;2.30;;;17.30;1.00;;;;;;5027308;28;20533;-74
2022/06/17 02:13:06;;;;;;;2.40;2.20;;;17.20;1.00;;;;;;5027905;28;20419;-74
2022/06/17 02:15:33;;;;;;;6.33;2.33;;;17.10;1.00;;;;;;5027139;28;20443;-75
2022/06/17 02:18:01;;;;;;;4.03;2.00;;;17.20;1.00;;;;;;5026511;28;20433;-74
2022/06/17 02:20:27;;;;;;;3.60;2.40;;;17.10;1.00;;;;;;5027692;28;20798;-75
2022/06/17 02:22:56;;;;;;;3.53;2.33;;;17.10;1.00;;;;;;5025704;28;20430;-74
2022/06/17 02:25:30;;;;;;;3.37;2.30;;;17.10;1.00;;;;;;5028890;28;20436;-74
2022/06/17 02:28:00;;;;;;;2.90;2.50;;;17.00;1.00;;;;;;5028370;28;20837;-74
2022/06/17 02:30:26;;;;;;;3.43;2.20;;;16.90;1.00;;;;;;5032411;28;20475;-75
2022/06/17 02:32:55;;;;;;;4.47;2.40;;;16.90;1.00;;;;;;5046001;28;20415;-74
2022/06/17 02:35:53;;;;;;;8.83;2.33;;;16.80;1.00;;;;;;5047561;28;20435;-74
2022/06/17 02:38:22;;;;;;;5.50;2.30;;;16.70;1.00;;;;;;5022104;28;20428;-74
2022/06/17 02:40:51;;;;;;;3.83;2.30;;;16.70;1.00;;;;;;5028612;28;20436;-74
2022/06/17 02:43:25;;;;;;;5.93;2.50;;;16.60;1.00;;;;;;5026391;28;20423;-75
2022/06/17 02:45:59;;;;;;;3.20;2.23;;;16.50;1.00;;;;;;5026919;28;20519;-75
2022/06/17 02:48:27;;;;;;;5.50;2.10;;;16.50;1.00;;;;;;5026284;28;20452;-75
2022/06/17 02:50:56;;;;;;;3.40;2.23;;;16.40;1.00;;;;;;5026941;28;20510;-74
2022/06/17 02:53:28;;;;;;;4.40;2.60;;;16.40;1.00;;;;;;5027705;28;20451;-74
2022/06/17 02:55:55;;;;;;;5.70;2.70;;;16.40;1.00;;;;;;5028362;28;20529;-73
2022/06/17 02:59:05;;;;;;;2.87;2.17;;;16.10;1.00;;;;;;5023906;28;20519;-75
2022/06/17 03:01:35;;;;;;;9.47;2.40;;;15.90;1.00;;;;;;5030736;28;20435;-74
2022/06/17 03:04:01;;;;;;;8.70;2.70;;;15.90;1.00;;;;;;5027486;28;20899;-74
2022/06/17 03:06:36;;;;;;;2.90;2.30;;;15.90;1.00;;;;;;5028042;28;20412;-74
2022/06/17 03:09:24;;;;;;;4.20;2.57;;;15.80;1.00;;;;;;5027899;28;20969;-74
2022/06/17 03:12:02;;;;;;;5.47;2.67;;;15.70;1.00;;;;;;5027777;28;20503;-74
2022/06/17 03:14:33;;;;;;;3.80;2.13;;;15.70;1.00;;;;;;5028044;28;20423;-75
2022/06/17 03:17:05;;;;;;;4.50;2.40;;;15.80;1.00;;;;;;5028107;28;20405;-74
2022/06/17 03:19:35;;;;;;;5.57;2.57;;;15.80;1.00;;;;;;5028407;28;20405;-74
2022/06/17 03:22:05;;;;;;;4.20;2.77;;;15.70;1.00;;;;;;5030728;28;20436;-74
2022/06/17 03:24:55;;;;;;;2.87;2.20;;;15.70;1.00;;;;;;5031332;28;20420;-74
2022/06/17 03:27:29;;;;;;;5.77;2.50;;;15.60;1.00;;;;;;5031318;28;20519;-74
2022/06/17 03:29:56;;;;;;;2.97;2.30;;;15.60;1.00;;;;;;5035531;28;20606;-74
2022/06/17 03:32:27;;;;;;;5.20;2.30;;;15.60;1.00;;;;;;5045530;28;20408;-74
2022/06/17 03:34:55;;;;;;;3.23;2.40;;;15.70;1.00;;;;;;5051034;28;20438;-74
2022/06/17 03:37:27;;;;;;;3.60;2.03;;;15.70;1.00;;;;;;5048916;28;20438;-74
2022/06/17 03:40:06;;;;;;;4.80;2.37;;;15.80;1.00;;;;;;5051424;28;20408;-74
2022/06/17 03:42:39;;;;;;;5.67;3.10;;;15.70;1.00;;;;;;5050548;28;20424;-74
2022/06/17 03:45:18;;;;;;;5.93;2.07;;;15.60;1.00;;;;;;5051433;28;20415;-74
2022/06/17 03:48:02;;;;;;;3.80;2.73;;;15.60;1.00;;;;;;5051062;28;20451;-75
2022/06/17 03:50:32;;;;;;;3.70;2.43;;;15.50;1.00;;;;;;5039360;28;20456;-74
2022/06/17 03:53:03;;;;;;;3.20;2.77;;;15.50;1.00;;;;;;5008761;28;20495;-75
2022/06/17 03:55:29;;;;;;;3.10;2.43;;;15.40;1.00;;;;;;5010034;28;20417;-74
2022/06/17 03:57:58;;;;;;;8.27;2.73;;;15.40;1.00;;;;;;5011485;28;20433;-75
2022/06/17 04:00:32;;;;;;;4.00;2.90;;;15.40;1.00;;;;;;5038526;28;20420;-74
2022/06/17 04:03:00;;;;;;;3.17;2.30;;;15.40;1.00;;;;;;5049428;28;20420;-74
2022/06/17 04:05:27;;;;;;;3.80;2.83;;;15.50;1.00;;;;;;5040533;28;20484;-74
2022/06/17 04:07:53;;;;;;;6.17;2.90;;;15.50;1.00;;;;;;5028446;28;20563;-74
2022/06/17 04:10:21;;;;;;;3.20;2.90;;;15.40;1.00;;;;;;5031058;28;20953;-74
2022/06/17 04:12:49;;;;;;;4.50;2.40;;;15.30;1.00;;;;;;5029990;28;20257;-74
2022/06/17 04:15:39;;;;;;;4.97;2.60;;;15.40;1.00;;;;;;5030977;28;20864;-74
2022/06/17 04:18:04;;;;;;;7.50;2.70;;;15.40;1.00;;;;;;5030313;28;20463;-74
2022/06/17 04:20:41;;;;;;;3.60;2.50;;;15.40;1.00;;;;;;5029807;28;20969;-75
2022/06/17 04:23:11;;;;;;;7.40;2.40;;;15.40;1.00;;;;;;5029570;28;20176;-74
2022/06/17 04:26:14;;;;;;;7.63;2.30;;;15.50;1.00;;;;;;5028830;28;20779;-74
2022/06/17 04:28:49;;;;;;;3.00;2.73;;;15.60;1.00;;;;;;5026551;28;20939;-74
2022/06/17 04:31:18;;;;;;;3.43;2.87;;;15.80;1.00;;;;;;5040670;28;20471;-74
2022/06/17 04:34:05;;;;;;;3.67;2.73;;;15.60;1.00;;;;;;5047921;28;20515;-74
2022/06/17 04:36:35;;;;;;;3.27;2.63;;;15.90;1.00;;;;;;5039353;28;20421;-75
2022/06/17 04:39:16;;;;;;;3.07;2.73;;;16.00;1.00;;;;;;5021387;28;20496;-74
2022/06/17 04:41:43;;;;;;;9.73;2.97;;;16.10;1.00;;;;;;5027976;28;20408;-74
2022/06/17 04:44:12;;;;;;;6.63;2.73;;;16.20;1.00;;;;;;5030371;28;20486;-74
2022/06/17 04:46:48;;;;;;;5.17;2.53;;;16.30;1.00;;;;;;5029809;28;20892;-74
2022/06/17 04:49:18;;;;;;;3.70;2.80;;;16.40;1.00;;;;;;5029151;28;20414;-74
2022/06/17 04:51:44;;;;;;;4.83;2.80;;;16.50;1.00;;;;;;5027149;28;20428;-75
2022/06/17 04:54:11;;;;;;;3.80;2.70;;;16.60;1.00;;;;;;5029761;28;20825;-74
2022/06/17 04:56:45;;;;;;;5.77;2.67;;;16.60;1.00;;;;;;5030011;28;20451;-74
2022/06/17 04:59:30;;;;;;;3.80;3.30;;;16.80;1.00;;;;;;5030147;28;20580;-74
2022/06/17 05:01:57;;;;;;;7.30;2.93;;;16.90;1.00;;;;;;5039173;28;20423;-73
2022/06/17 05:04:23;;;;;;;6.63;3.00;;;17.00;1.00;;;;;;5048892;28;20660;-76
2022/06/17 05:06:49;;;;;;;7.97;2.83;;;17.10;1.00;;;;;;5048964;28;20414;-74
2022/06/17 05:09:24;;;;;;;3.57;2.60;;;17.20;1.00;;;;;;5047531;28;20507;-74
2022/06/17 05:11:53;;;;;;;4.23;2.77;;;17.40;1.00;;;;;;5047200;28;20190;-75
2022/06/17 05:14:30;;;;;;;4.07;3.00;;;17.50;1.00;;;;;;5049296;28;20419;-74
2022/06/17 05:16:57;;;;;;;3.90;3.03;;;17.80;1.00;;;;;;5047944;28;20870;-74
2022/06/17 05:19:23;;;;;;;5.70;3.33;;;17.80;1.00;;;;;;5048553;28;20565;-75
2022/06/17 05:21:48;;;;;;;4.80;3.00;;;17.90;1.00;;;;;;5048154;28;20507;-75
2022/06/17 05:24:14;;;;;;;5.70;3.50;;;18.00;1.00;;;;;;5042830;28;20174;-74
2022/06/17 05:26:40;;;;;;;8.37;3.50;;;18.10;1.00;;;;;;5026226;28;20619;-74
2022/06/17 05:29:08;;;;;;;4.57;3.27;;;18.30;1.00;;;;;;5027550;28;20193;-74
2022/06/17 05:31:33;;;;;;;5.20;3.17;;;18.30;1.00;;;;;;5040136;28;20288;-75
2022/06/17 05:33:59;;;;;;;4.33;3.30;;;18.40;1.00;;;;;;5046698;28;20868;-74
2022/06/17 05:36:24;;;;;;;6.23;3.20;;;18.50;1.00;;;;;;5048685;28;20166;-73
2022/06/17 05:38:50;;;;;;;6.70;3.63;;;18.80;1.00;;;;;;5046754;28;20189;-75
2022/06/17 05:41:19;;;;;;;7.73;3.20;;;18.80;1.00;;;;;;5048650;28;20180;-74
2022/06/17 05:43:44;;;;;;;4.13;3.53;;;18.90;1.00;;;;;;5039336;28;20463;-74
2022/06/17 05:46:10;;;;;;;4.50;3.00;;;19.00;1.00;;;;;;5009353;28;20831;-75
2022/06/17 05:48:35;;;;;;;3.73;3.23;;;19.00;1.00;;;;;;5008385;28;20665;-75
2022/06/17 05:51:01;;;;;;;7.30;3.57;;;19.00;1.00;;;;;;5008687;28;20202;-75
2022/06/17 05:53:26;;;;;;;4.70;3.10;;;19.00;1.00;;;;;;5008510;28;20228;-75
2022/06/17 05:55:54;;;;;;;5.43;4.00;;;19.00;1.00;;;;;;5009295;28;20208;-75
2022/06/17 05:58:20;;;;;;;7.20;3.10;;;19.10;1.00;;;;;;5011096;28;20186;-75
2022/06/17 06:00:46;;;;;;;5.70;3.10;;;19.20;1.00;;;;;;5038460;28;20443;-75
2022/06/17 06:03:18;;;;;;;5.93;3.10;;;19.30;1.00;;;;;;5047790;28;20431;-75
2022/06/17 06:05:44;;;;;;;3.90;2.93;;;19.30;1.00;;;;;;5036652;28;20182;-74
2022/06/17 06:08:09;;;;;;;5.00;3.00;;;19.40;1.00;;;;;;5027843;28;20731;-74
2022/06/17 06:10:35;;;;;;;5.20;2.90;;;19.50;1.00;;;;;;5028983;28;20282;-75
2022/06/17 06:13:03;;;;;;;4.30;3.03;;;19.60;1.00;;;;;;5027917;28;20316;-75
2022/06/17 06:15:36;;;;;;;4.73;3.00;;;19.70;1.00;;;;;;5028878;28;20405;-74
2022/06/17 06:18:02;;;;;;;5.13;2.97;;;19.70;1.00;;;;;;5026804;28;20428;-75
2022/06/17 06:20:28;;;;;;;5.13;3.17;;;19.80;1.00;;;;;;5027902;28;21047;-74
2022/06/17 06:22:54;;;;;;;6.23;3.50;;;19.90;1.00;;;;;;5027511;28;20487;-75
2022/06/17 06:25:20;;;;;;;7.73;2.70;;;20.00;1.00;;;;;;5028822;28;20244;-75
2022/06/17 06:27:45;;;;;;;5.30;3.10;;;20.10;1.00;;;;;;5028412;28;20208;-74
2022/06/17 06:30:24;;;;;;;4.80;2.70;;;20.20;1.00;;;;;;5032230;28;20834;-75
2022/06/17 06:33:01;;;;;;;3.87;2.83;;;20.30;1.00;;;;;;5045649;28;20308;-74
2022/06/17 06:35:34;;;;;;;5.43;2.97;;;20.40;1.00;;;;;;5047890;28;20413;-74
2022/06/17 06:38:00;;;;;;;3.77;2.80;;;20.50;1.00;;;;;;5023861;28;20519;-74
2022/06/17 06:40:27;;;;;;;4.30;3.10;;;20.60;1.00;;;;;;5028426;28;20768;-74
2022/06/17 06:42:54;;;;;;;5.83;2.60;;;20.70;1.00;;;;;;5026336;28;20803;-75
2022/06/17 06:45:25;;;;;;;3.87;2.50;;;20.80;1.00;;;;;;5028397;28;20408;-75
2022/06/17 06:47:53;;;;;;;4.83;2.50;;;20.90;1.00;;;;;;5027910;28;20481;-74
2022/06/17 06:50:23;;;;;;;5.37;2.80;;;21.00;1.00;;;;;;5027510;28;20546;-75
2022/06/17 06:52:49;;;;;;;9.90;2.83;;;21.20;1.00;;;;;;5025582;28;20419;-76
2022/06/17 06:55:15;;;;;;;11.80;3.03;;;21.40;1.00;;;;;;5030589;28;20412;-74
2022/06/17 06:57:47;;;;;;;7.67;4.30;;;21.60;1.00;;;;;;5032352;28;20647;-75
2022/06/17 07:00:20;;;;;;;4.53;2.70;;;21.70;1.00;;;;;;5041413;28;20490;-74
2022/06/17 07:02:45;;;;;;;8.80;2.97;;;22.00;1.00;;;;;;5033249;28;20420;-75
2022/06/17 07:05:11;;;;;;;5.83;2.80;;;22.10;1.00;;;;;;5029562;28;20423;-74
2022/06/17 07:07:37;;;;;;;6.13;2.70;;;22.20;1.00;;;;;;5030059;28;20331;-75
2022/06/17 07:10:04;;;;;;;3.33;2.33;;;22.50;1.00;;;;;;5031978;28;20448;-75
2022/06/17 07:12:29;;;;;;;5.60;2.60;;;22.80;1.00;;;;;;5029451;28;20446;-75
2022/06/17 07:14:55;;;;;;;4.50;2.67;;;22.80;1.00;;;;;;5031972;28;20439;-75
2022/06/17 07:17:20;;;;;;;9.73;2.60;;;23.00;1.00;;;;;;5030208;28;20715;-75
2022/06/17 07:19:46;;;;;;;4.40;2.80;;;23.20;1.00;;;;;;5031255;28;20249;-75
2022/06/17 07:22:11;;;;;;;3.83;2.60;;;23.30;1.00;;;;;;5029995;28;20527;-75
2022/06/17 07:24:37;;;;;;;5.03;3.00;;;23.50;1.00;;;;;;5031468;28;20312;-75
2022/06/17 07:27:03;;;;;;;27.27;5.30;;;23.70;1.00;;;;;;5031466;28;20170;-75
2022/06/17 07:29:28;;;;;;;7.30;2.70;;;23.90;1.00;;;;;;5034569;28;20202;-75
2022/06/17 07:31:54;;;;;;;5.23;2.60;;;24.30;1.00;;;;;;5040795;28;20422;-74
2022/06/17 07:34:20;;;;;;;7.67;2.70;;;24.40;1.00;;;;;;5032008;28;20324;-75
2022/06/17 07:42:14;;;;;;;8.87;2.60;;;24.90;1.00;;;;;;5011043;28;20452;-75
2022/06/17 07:44:39;;;;;;;5.67;2.70;;;25.20;1.00;;;;;;5011684;28;20405;-75
2022/06/17 07:47:05;;;;;;;7.80;2.70;;;25.20;1.00;;;;;;5011335;28;20225;-75
2022/06/17 07:49:31;;;;;;;5.13;2.77;;;25.30;1.00;;;;;;5010819;28;20748;-75
2022/06/17 07:51:56;;;;;;;4.27;2.67;;;25.50;1.00;;;;;;5010088;28;20174;-75
2022/06/17 07:54:22;;;;;;;29.87;4.30;;;25.70;1.00;;;;;;5010826;28;20178;-75
2022/06/17 07:56:47;;;;;;;10.03;3.80;;;26.30;1.00;;;;;;5011269;28;20170;-75
2022/06/17 07:59:13;;;;;;;5.10;2.57;;;26.50;1.00;;;;;;5021664;28;20184;-75
2022/06/17 08:01:39;;;;;;;4.20;2.57;;;26.80;1.00;;;;;;5041886;28;20675;-76
2022/06/17 08:04:05;;;;;;;4.70;2.80;;;26.90;1.00;;;;;;5048488;28;20651;-75
2022/06/17 08:06:30;;;;;;;8.67;2.63;;;26.90;1.00;;;;;;5029433;28;20299;-75
2022/06/17 08:08:56;;;;;;;3.23;2.63;;;26.90;1.00;;;;;;5030090;28;20208;-75
2022/06/17 08:11:21;;;;;;;3.30;2.60;;;26.80;1.00;;;;;;5029018;28;20598;-74
2022/06/17 08:13:49;;;;;;;3.17;2.40;;;26.60;1.00;;;;;;5029434;28;20281;-75
2022/06/17 08:16:14;;;;;;;4.17;2.50;;;26.60;1.00;;;;;;5030220;28;20276;-76
2022/06/17 08:18:41;;;;;;;4.67;2.70;;;26.90;1.00;;;;;;5030757;28;20694;-75
2022/06/17 08:21:08;;;;;;;9.67;2.80;;;27.40;1.00;;;;;;5032813;28;20571;-75
2022/06/17 08:23:34;;;;;;;6.20;2.57;;;27.80;1.00;;;;;;5032321;28;20228;-75
2022/06/17 08:26:00;;;;;;;3.53;2.77;;;27.60;1.00;;;;;;5030533;28;20181;-76
2022/06/17 08:28:26;;;;;;;6.43;2.90;;;27.40;1.00;;;;;;5025761;28;20201;-75
2022/06/17 08:30:55;;;;;;;7.63;2.60;;;27.40;1.00;;;;;;5039499;28;20622;-77
2022/06/17 08:33:27;;;;;;;3.60;2.50;;;27.90;1.00;;;;;;5049600;28;20171;-76
2022/06/17 08:35:55;;;;;;;4.67;2.80;;;28.00;1.00;;;;;;5049161;28;20413;-75
2022/06/17 08:38:26;;;;;;;9.70;2.80;;;27.80;1.00;;;;;;5024036;28;20272;-74
2022/06/17 08:40:54;;;;;;;8.87;2.47;;;27.80;1.00;;;;;;5029735;28;20181;-76
2022/06/17 08:43:41;;;;;;;5.63;2.70;;;28.00;1.00;;;;;;5028490;28;20204;-75
2022/06/17 08:46:21;;;;;;;6.60;3.20;;;28.10;1.00;;;;;;5030133;28;20231;-75
2022/06/17 08:49:13;;;;;;;4.33;3.00;;;28.50;1.00;;;;;;5029202;28;20205;-75
2022/06/17 08:51:55;;;;;;;5.77;2.50;;;28.70;1.00;;;;;;5027487;28;20296;-76
2022/06/17 08:55:07;;;;;;;5.00;2.50;;;28.80;1.00;;;;;;5029499;28;20169;-75
2022/06/17 08:57:50;;;;;;;6.10;2.60;;;28.80;1.00;;;;;;5007313;28;20193;-76
2022/06/17 09:00:20;;;;;;;4.30;2.20;;;28.90;1.00;;;;;;5001872;28;20546;-75
2022/06/17 09:03:24;;;;;;;3.77;2.50;;;29.00;1.00;;;;;;5014132;28;20189;-75
2022/06/17 09:06:14;;;;;;;5.13;2.33;;;29.50;1.00;;;;;;5029053;28;20169;-76
2022/06/17 09:09:01;;;;;;;7.73;2.70;;;29.60;1.00;;;;;;5029347;28;20196;-75
2022/06/17 09:11:49;;;;;;;4.87;2.40;;;29.40;1.00;;;;;;5028904;28;20251;-75
2022/06/17 09:14:43;;;;;;;3.80;2.40;;;30.10;1.00;;;;;;5029688;28;20658;-76
2022/06/17 09:17:23;;;;;;;3.72;2.35;;;30.90;1.00;;;;;;5020719;28;20728;-76
2022/06/17 09:19:52;;;;;;;4.05;2.28;;;31.40;1.00;;;;;;5028730;28;20173;-75
2022/06/17 09:22:25;;;;;;;6.82;2.55;;;32.10;1.00;;;;;;5027851;28;20203;-76
2022/06/17 09:24:52;;;;;;;3.35;2.30;;;33.20;1.00;;;;;;5025981;28;20266;-76
2022/06/17 09:27:26;;;;;;;5.88;2.40;;;34.70;1.00;;;;;;5029095;28;20347;-76
2022/06/17 09:30:15;;;;;;;9.18;2.50;;;35.30;1.00;;;;;;5033130;28;20404;-77
2022/06/17 09:33:15;;;;;;;4.68;2.33;;;36.20;1.00;;;;;;5045817;28;20538;-77
2022/06/17 09:36:07;;;;;;;3.15;2.25;;;36.10;1.00;;;;;;5047182;28;20628;-77
2022/06/17 09:38:49;;;;;;;4.97;2.15;;;36.40;1.00;;;;;;5042264;28;20245;-76
2022/06/17 09:41:33;;;;;;;5.90;2.38;;;36.30;1.00;;;;;;5009419;28;20201;-76
2022/06/17 09:44:13;;;;;;;2.70;2.10;;;35.20;1.00;;;;;;5009767;28;20177;-77
2022/06/17 09:46:43;;;;;;;3.60;2.30;;;34.80;1.00;;;;;;5011865;28;20259;-76
2022/06/17 09:49:27;;;;;;;3.53;2.30;;;34.80;1.00;;;;;;5008513;28;20621;-76
2022/06/17 09:52:12;;;;;;;4.55;2.10;;;35.60;1.00;;;;;;5008098;28;20177;-77
2022/06/17 09:54:46;;;;;;;6.32;2.28;;;37.30;1.00;;;;;;5009400;28;20161;-77
2022/06/17 09:57:34;;;;;;;3.00;2.10;;;38.60;1.00;;;;;;5007685;28;20195;-76
2022/06/17 10:00:05;;;;;;;2.88;1.80;;;38.20;1.00;;;;;;5033301;28;20343;-77
2022/06/17 10:02:53;;;;;;;5.70;2.63;;;38.10;1.00;;;;;;5043970;28;20181;-77
2022/06/17 10:05:38;;;;;;;4.32;2.30;;;38.20;1.00;;;;;;5040155;28;20253;-77
2022/06/17 10:08:11;;;;;;;5.45;2.00;;;38.70;1.00;;;;;;5020450;28;20898;-76
2022/06/17 10:11:04;;;;;;;4.97;2.20;;;39.40;1.00;;;;;;5027494;28;20201;-77
2022/06/17 10:13:38;;;;;;;5.50;2.30;;;39.60;1.00;;;;;;5017239;28;20200;-77
2022/06/17 10:19:25;;;;;;;3.40;1.90;;;39.50;1.00;;;;;;5028265;28;20219;-77
2022/06/17 10:22:14;;;;;;;3.33;2.05;;;39.80;1.00;;;;;;5027618;28;20535;-77
2022/06/17 10:24:59;;;;;;;2.58;1.85;;;40.20;1.00;;;;;;5027369;28;20169;-77
2022/06/17 10:27:31;;;;;;;3.75;2.20;;;40.50;1.00;;;;;;5026984;28;20203;-77
2022/06/17 10:30:08;;;;;;;2.78;1.83;;;40.50;1.00;;;;;;5032453;28;20193;-77
2022/06/17 10:32:39;;;;;;;9.18;1.92;;;40.70;1.00;;;;;;5046894;28;20536;-77
2022/06/17 10:35:12;;;;;;;4.07;2.33;;;40.90;1.00;;;;;;5050232;28;20714;-77
2022/06/17 10:37:38;;;;;;;3.30;2.20;;;40.50;1.00;;;;;;5035582;28;20447;-77
2022/06/17 10:40:07;;;;;;;3.28;1.98;;;40.50;1.00;;;;;;5032858;28;20181;-77
2022/06/17 10:42:33;;;;;;;3.63;2.10;;;40.90;1.00;;;;;;5031760;28;20187;-77
2022/06/17 10:45:01;;;;;;;3.03;2.20;;;41.10;1.00;;;;;;5031161;28;20169;-78
2022/06/17 10:47:59;;;;;;;5.32;2.42;;;40.80;1.00;;;;;;5031992;28;20205;-77
2022/06/17 10:50:29;;;;;;;3.20;2.00;;;41.00;1.00;;;;;;5019230;28;20219;-77
2022/06/17 10:52:57;;;;;;;4.88;2.10;;;41.50;1.00;;;;;;5030642;28;20331;-77
2022/06/17 10:55:46;;;;;;;4.05;2.50;;;41.70;1.00;;;;;;5032331;28;20178;-77
2022/06/17 10:58:20;;;;;;;3.92;2.30;;;41.50;1.00;;;;;;5031019;28;20192;-77
2022/06/17 11:00:59;;;;;;;4.30;2.08;;;41.70;1.00;;;;;;5040245;28;20263;-77
2022/06/17 11:03:39;;;;;;;2.83;1.80;;;41.80;1.00;;;;;;5051666;28;20195;-77
2022/06/17 11:06:21;;;;;;;4.38;2.20;;;42.30;1.00;;;;;;5051731;28;20293;-77
2022/06/17 11:08:57;;;;;;;3.17;1.70;;;42.50;1.00;;;;;;5051552;28;20559;-77
2022/06/17 11:14:39;;;;;;;3.97;2.10;;;42.60;1.00;;;;;;5051599;28;20256;-77
2022/06/17 11:17:14;;;;;;;3.67;1.80;;;41.60;1.00;;;;;;5051926;28;20168;-77
2022/06/17 11:19:42;;;;;;;3.97;1.80;;;41.60;1.00;;;;;;5050976;28;20176;-77
2022/06/17 11:22:17;;;;;;;5.13;1.80;;;41.90;1.00;;;;;;5050413;28;20176;-77
2022/06/17 11:24:51;;;;;;;2.90;1.70;;;42.60;1.00;;;;;;5046864;28;20427;-77
2022/06/17 11:27:23;;;;;;;4.18;1.80;;;42.40;1.00;;;;;;5026483;28;20189;-76
2022/06/17 11:29:51;;;;;;;3.50;1.92;;;42.20;1.00;;;;;;5034016;28;20200;-77
2022/06/17 11:32:19;;;;;;;3.55;1.67;;;42.30;1.00;;;;;;5034075;28;20178;-77
2022/06/17 11:34:49;;;;;;;2.92;1.70;;;41.70;1.00;;;;;;5028739;28;20243;-76
2022/06/17 11:37:27;;;;;;;4.47;1.65;;;41.20;1.00;;;;;;5030385;28;20371;-77
2022/06/17 11:40:10;;;;;;;5.63;2.17;;;41.10;1.00;;;;;;5030055;28;20181;-77
2022/06/17 11:42:45;;;;;;;4.53;2.17;;;41.80;1.00;;;;;;5009612;28;20244;-77
2022/06/17 11:45:18;;;;;;;3.00;1.75;;;42.60;1.00;;;;;;5011858;28;20165;-77
2022/06/17 11:47:49;;;;;;;2.55;1.40;;;43.40;1.00;;;;;;5011226;28;20205;-78
2022/06/17 11:50:20;;;;;;;3.35;1.50;;;43.30;1.00;;;;;;5028004;28;20203;-77
2022/06/17 11:52:46;;;;;;;2.10;1.23;;;43.10;1.00;;;;;;5028561;28;20180;-77
2022/06/17 11:55:13;;;;;;;2.90;1.73;;;43.10;1.00;;;;;;5031343;28;20173;-77
2022/06/17 11:57:40;;;;;;;2.90;1.50;;;43.30;1.00;;;;;;5029827;28;20197;-77
2022/06/17 12:00:19;;;;;;;3.40;1.58;;;43.10;1.00;;;;;;5034824;28;20257;-77
2022/06/17 12:02:57;;;;;;;3.05;1.63;;;43.50;1.00;;;;;;5048218;28;20180;-77
2022/06/17 12:05:29;;;;;;;2.88;1.50;;;43.40;1.00;;;;;;5041029;28;20247;-77
2022/06/17 12:08:10;;;;;;;4.60;1.70;;;43.00;1.00;;;;;;5029403;28;20224;-77
2022/06/17 12:10:50;;;;;;;4.38;1.73;;;43.40;1.00;;;;;;5030856;28;20197;-78
2022/06/17 12:13:34;;;;;;;3.33;1.60;;;44.50;1.00;;;;;;5031327;28;20174;-76
2022/06/17 12:16:13;;;;;;;3.28;1.85;;;45.20;1.00;;;;;;5031018;28;20283;-77
2022/06/17 12:18:43;;;;;;;2.22;1.50;;;45.60;1.00;;;;;;5028599;28;20189;-78
2022/06/17 12:21:25;;;;;;;3.33;1.52;;;45.20;1.00;;;;;;5029802;28;20166;-77
2022/06/17 12:24:24;;;;;;;2.40;1.60;;;45.20;1.00;;;;;;5030390;28;20174;-77
2022/06/17 12:27:12;;;;;;;4.05;1.75;;;45.30;1.00;;;;;;5030630;28;20230;-76
2022/06/17 12:30:18;;;;;;;2.95;1.73;;;45.00;1.00;;;;;;5033001;28;20624;-77
2022/06/17 12:32:57;;;;;;;2.20;1.30;;;45.20;1.00;;;;;;5047699;28;20184;-78
2022/06/17 12:35:29;;;;;;;4.28;1.70;;;46.00;1.00;;;;;;5049930;28;20179;-77
2022/06/17 12:38:09;;;;;;;4.13;1.50;;;46.20;1.00;;;;;;5049727;28;20185;-77
2022/06/17 12:40:53;;;;;;;4.15;1.45;;;45.30;1.00;;;;;;5050501;28;20258;-77
2022/06/17 12:43:35;;;;;;;1.90;1.20;;;44.90;1.00;;;;;;5050320;28;20595;-78
2022/06/17 12:46:23;;;;;;;5.70;1.40;;;45.20;1.00;;;;;;5050187;28;20184;-77
2022/06/17 12:55:17;;;;;;;2.95;1.50;;;45.60;1.00;;;;;;5038894;28;20212;-77
2022/06/17 12:58:19;;;;;;;2.20;1.45;;;44.60;1.00;;;;;;5029852;28;20208;-77
2022/06/17 13:00:55;;;;;;;4.25;1.50;;;44.40;1.00;;;;;;5030770;28;20184;-76
2022/06/17 13:03:47;;;;;;;3.50;1.55;;;43.90;1.00;;;;;;5029339;28;20632;-77
2022/06/17 13:06:40;;;;;;;2.08;1.20;;;44.10;1.00;;;;;;5029732;28;20181;-77
2022/06/17 13:09:35;;;;;;;2.20;1.20;;;43.90;1.00;;;;;;5026146;28;20620;-77
2022/06/17 13:12:17;;;;;;;2.80;1.30;;;43.60;1.00;;;;;;5029563;28;20191;-77
2022/06/17 13:15:05;;;;;;;2.60;1.38;;;43.50;1.00;;;;;;5029787;28;20180;-77
2022/06/17 13:17:44;;;;;;;2.15;1.30;;;43.90;1.00;;;;;;5029486;28;20581;-77
2022/06/17 13:20:28;;;;;;;2.08;1.35;;;44.50;1.00;;;;;;5028815;28;20551;-77
2022/06/17 13:23:03;;;;;;;2.70;1.40;;;44.30;1.00;;;;;;5028719;28;20169;-77
2022/06/17 13:25:44;;;;;;;3.28;1.60;;;44.90;1.00;;;;;;5029567;28;20208;-77
2022/06/17 13:28:43;;;;;;;3.30;1.60;;;45.20;1.00;;;;;;5028569;28;20205;-76
2022/06/17 13:31:20;;;;;;;2.88;1.40;;;45.20;1.00;;;;;;5030659;28;20475;-76
2022/06/17 13:33:54;;;;;;;2.40;1.50;;;45.50;1.00;;;;;;5028741;28;20169;-77
2022/06/17 13:36:25;;;;;;;2.10;1.23;;;45.10;1.00;;;;;;5029384;28;20165;-77
2022/06/17 13:38:56;;;;;;;2.05;1.30;;;45.30;1.00;;;;;;5028989;28;20204;-77
2022/06/17 13:41:30;;;;;;;2.10;1.30;;;44.20;1.00;;;;;;5029083;28;20248;-77
2022/06/17 13:44:04;;;;;;;5.15;1.40;;;44.40;1.00;;;;;;5029465;28;20173;-77
2022/06/17 13:46:58;;;;;;;2.35;1.30;;;45.00;1.00;;;;;;5029304;28;20193;-77
2022/06/17 13:49:35;;;;;;;3.35;1.80;;;45.20;1.00;;;;;;5025289;28;20632;-77
2022/06/17 13:52:29;;;;;;;4.10;1.45;;;44.40;1.00;;;;;;5028165;28;20173;-77